sensor_id;sensor_type;location;lat;lon;timestamp;P1;durP1;ratioP1;P2;durP2;ratioP2
38499;SDS011;24269;51.894;4.622;2022-09-02T00:00:43;3.75;;;1.10;;
38499;SDS011;24269;51.894;4.622;2022-09-02T00:03:14;3.45;;;1.02;;
38499;SDS011;24269;51.894;4.622;2022-09-02T00:05:40;3.95;;;1.40;;
38499;SDS011;24269;51.894;4.622;2022-09-02T00:08:07;4.88;;;1.20;;
38499;SDS011;24269;51.894;4.622;2022-09-02T00:10:34;4.18;;;1.25;;
38499;SDS011;24269;51.894;4.622;2022-09-02T00:13:02;3.50;;;1.40;;
38499;SDS011;24269;51.894;4.622;2022-09-02T00:15:29;2.97;;;1.23;;
38499;SDS011;24269;51.894;4.622;2022-09-02T00:17:54;4.63;;;1.30;;
38499;SDS011;24269;51.894;4.622;2022-09-02T00:20:21;3.17;;;1.13;;
38499;SDS011;24269;51.894;4.622;2022-09-02T00:22:46;4.90;;;1.40;;
38499;SDS011;24269;51.894;4.622;2022-09-02T00:25:12;4.82;;;1.35;;
38499;SDS011;24269;51.894;4.622;2022-09-02T00:27:38;4.68;;;1.20;;
38499;SDS011;24269;51.894;4.622;2022-09-02T00:30:03;3.60;;;1.30;;
38499;SDS011;24269;51.894;4.622;2022-09-02T00:32:30;3.03;;;1.45;;
38499;SDS011;24269;51.894;4.622;2022-09-02T00:34:56;3.58;;;1.20;;
38499;SDS011;24269;51.894;4.622;2022-09-02T00:37:22;2.47;;;1.10;;
38499;SDS011;24269;51.894;4.622;2022-09-02T00:39:49;4.38;;;1.10;;
38499;SDS011;24269;51.894;4.622;2022-09-02T00:42:17;2.90;;;1.10;;
38499;SDS011;24269;51.894;4.622;2022-09-02T00:44:43;5.00;;;1.30;;
38499;SDS011;24269;51.894;4.622;2022-09-02T00:47:08;2.70;;;1.00;;
38499;SDS011;24269;51.894;4.622;2022-09-02T00:49:36;2.75;;;1.20;;
38499;SDS011;24269;51.894;4.622;2022-09-02T00:52:07;4.10;;;1.10;;
38499;SDS011;24269;51.894;4.622;2022-09-02T00:54:40;3.95;;;1.10;;
38499;SDS011;24269;51.894;4.622;2022-09-02T00:57:11;2.28;;;1.10;;
38499;SDS011;24269;51.894;4.622;2022-09-02T01:02:36;2.55;;;1.00;;
38499;SDS011;24269;51.894;4.622;2022-09-02T01:05:04;3.13;;;1.10;;
38499;SDS011;24269;51.894;4.622;2022-09-02T01:07:33;4.00;;;1.20;;
38499;SDS011;24269;51.894;4.622;2022-09-02T01:10:03;2.65;;;0.93;;
38499;SDS011;24269;51.894;4.622;2022-09-02T01:12:34;3.20;;;1.00;;
38499;SDS011;24269;51.894;4.622;2022-09-02T01:15:01;2.50;;;1.00;;
38499;SDS011;24269;51.894;4.622;2022-09-02T01:17:29;4.70;;;1.10;;
38499;SDS011;24269;51.894;4.622;2022-09-02T01:20:00;4.18;;;1.13;;
38499;SDS011;24269;51.894;4.622;2022-09-02T01:22:30;4.07;;;1.07;;
38499;SDS011;24269;51.894;4.622;2022-09-02T01:24:57;2.65;;;1.00;;
38499;SDS011;24269;51.894;4.622;2022-09-02T01:27:27;4.68;;;1.00;;
38499;SDS011;24269;51.894;4.622;2022-09-02T01:29:54;4.32;;;1.27;;
38499;SDS011;24269;51.894;4.622;2022-09-02T01:32:22;3.78;;;1.42;;
38499;SDS011;24269;51.894;4.622;2022-09-02T01:34:49;3.63;;;1.08;;
38499;SDS011;24269;51.894;4.622;2022-09-02T01:37:15;1.70;;;0.90;;
38499;SDS011;24269;51.894;4.622;2022-09-02T01:39:41;3.72;;;1.00;;
38499;SDS011;24269;51.894;4.622;2022-09-02T01:42:07;2.17;;;0.90;;
38499;SDS011;24269;51.894;4.622;2022-09-02T01:44:36;3.67;;;1.02;;
38499;SDS011;24269;51.894;4.622;2022-09-02T01:47:08;4.07;;;0.90;;
38499;SDS011;24269;51.894;4.622;2022-09-02T01:49:38;2.28;;;1.10;;
38499;SDS011;24269;51.894;4.622;2022-09-02T01:52:04;4.65;;;1.00;;
38499;SDS011;24269;51.894;4.622;2022-09-02T01:54:30;4.18;;;1.17;;
38499;SDS011;24269;51.894;4.622;2022-09-02T01:56:56;2.80;;;1.20;;
38499;SDS011;24269;51.894;4.622;2022-09-02T01:59:22;3.20;;;1.02;;
38499;SDS011;24269;51.894;4.622;2022-09-02T02:01:47;2.90;;;1.05;;
38499;SDS011;24269;51.894;4.622;2022-09-02T02:04:13;2.90;;;1.08;;
38499;SDS011;24269;51.894;4.622;2022-09-02T02:06:40;4.70;;;1.23;;
38499;SDS011;24269;51.894;4.622;2022-09-02T02:09:07;4.18;;;1.05;;
38499;SDS011;24269;51.894;4.622;2022-09-02T02:11:33;2.60;;;1.15;;
38499;SDS011;24269;51.894;4.622;2022-09-02T02:13:59;2.55;;;1.20;;
38499;SDS011;24269;51.894;4.622;2022-09-02T02:16:25;3.08;;;1.00;;
38499;SDS011;24269;51.894;4.622;2022-09-02T02:18:50;2.97;;;1.10;;
38499;SDS011;24269;51.894;4.622;2022-09-02T02:21:16;2.17;;;1.02;;
38499;SDS011;24269;51.894;4.622;2022-09-02T02:23:41;3.15;;;1.10;;
38499;SDS011;24269;51.894;4.622;2022-09-02T02:26:07;2.60;;;1.35;;
38499;SDS011;24269;51.894;4.622;2022-09-02T02:28:33;5.05;;;1.08;;
38499;SDS011;24269;51.894;4.622;2022-09-02T02:30:59;3.10;;;1.27;;
38499;SDS011;24269;51.894;4.622;2022-09-02T02:33:25;4.00;;;1.38;;
38499;SDS011;24269;51.894;4.622;2022-09-02T02:35:53;3.53;;;1.23;;
38499;SDS011;24269;51.894;4.622;2022-09-02T02:38:19;2.75;;;1.10;;
38499;SDS011;24269;51.894;4.622;2022-09-02T02:40:45;10.82;;;1.30;;
38499;SDS011;24269;51.894;4.622;2022-09-02T02:43:11;2.58;;;1.00;;
38499;SDS011;24269;51.894;4.622;2022-09-02T02:45:37;2.85;;;1.20;;
38499;SDS011;24269;51.894;4.622;2022-09-02T02:48:03;2.67;;;1.10;;
38499;SDS011;24269;51.894;4.622;2022-09-02T02:50:29;5.40;;;1.35;;
38499;SDS011;24269;51.894;4.622;2022-09-02T02:52:55;2.60;;;1.30;;
38499;SDS011;24269;51.894;4.622;2022-09-02T02:55:21;3.28;;;1.17;;
38499;SDS011;24269;51.894;4.622;2022-09-02T02:57:48;4.90;;;1.35;;
38499;SDS011;24269;51.894;4.622;2022-09-02T03:00:23;2.67;;;1.00;;
38499;SDS011;24269;51.894;4.622;2022-09-02T03:02:58;3.45;;;1.17;;
38499;SDS011;24269;51.894;4.622;2022-09-02T03:05:25;2.65;;;1.13;;
38499;SDS011;24269;51.894;4.622;2022-09-02T03:07:52;3.53;;;1.20;;
38499;SDS011;24269;51.894;4.622;2022-09-02T03:10:18;3.67;;;1.17;;
38499;SDS011;24269;51.894;4.622;2022-09-02T03:12:44;3.22;;;1.33;;
38499;SDS011;24269;51.894;4.622;2022-09-02T03:15:12;2.50;;;1.05;;
38499;SDS011;24269;51.894;4.622;2022-09-02T03:17:41;3.00;;;1.30;;
38499;SDS011;24269;51.894;4.622;2022-09-02T03:20:07;4.32;;;1.15;;
38499;SDS011;24269;51.894;4.622;2022-09-02T03:22:33;4.03;;;1.23;;
38499;SDS011;24269;51.894;4.622;2022-09-02T03:25:01;2.05;;;1.10;;
38499;SDS011;24269;51.894;4.622;2022-09-02T03:27:27;3.97;;;1.30;;
38499;SDS011;24269;51.894;4.622;2022-09-02T03:29:53;2.67;;;1.30;;
38499;SDS011;24269;51.894;4.622;2022-09-02T03:32:18;4.25;;;1.10;;
38499;SDS011;24269;51.894;4.622;2022-09-02T03:34:44;4.18;;;1.08;;
38499;SDS011;24269;51.894;4.622;2022-09-02T03:37:10;3.72;;;1.20;;
38499;SDS011;24269;51.894;4.622;2022-09-02T03:39:36;5.32;;;1.30;;
38499;SDS011;24269;51.894;4.622;2022-09-02T03:42:03;4.07;;;1.17;;
38499;SDS011;24269;51.894;4.622;2022-09-02T03:44:29;3.83;;;1.10;;
38499;SDS011;24269;51.894;4.622;2022-09-02T03:46:55;4.03;;;1.20;;
38499;SDS011;24269;51.894;4.622;2022-09-02T03:49:20;3.22;;;1.25;;
38499;SDS011;24269;51.894;4.622;2022-09-02T03:51:46;3.53;;;1.17;;
38499;SDS011;24269;51.894;4.622;2022-09-02T03:54:11;3.53;;;1.20;;
38499;SDS011;24269;51.894;4.622;2022-09-02T03:56:37;5.47;;;1.13;;
38499;SDS011;24269;51.894;4.622;2022-09-02T03:59:03;8.10;;;1.10;;
38499;SDS011;24269;51.894;4.622;2022-09-02T04:01:29;3.28;;;1.23;;
38499;SDS011;24269;51.894;4.622;2022-09-02T04:03:54;4.43;;;1.20;;
38499;SDS011;24269;51.894;4.622;2022-09-02T04:06:22;2.78;;;1.02;;
38499;SDS011;24269;51.894;4.622;2022-09-02T04:08:49;5.95;;;1.20;;
38499;SDS011;24269;51.894;4.622;2022-09-02T04:11:16;4.38;;;1.02;;
38499;SDS011;24269;51.894;4.622;2022-09-02T04:13:45;2.83;;;1.10;;
38499;SDS011;24269;51.894;4.622;2022-09-02T04:16:13;4.28;;;1.38;;
38499;SDS011;24269;51.894;4.622;2022-09-02T04:18:40;2.78;;;1.20;;
38499;SDS011;24269;51.894;4.622;2022-09-02T04:21:07;3.30;;;1.10;;
38499;SDS011;24269;51.894;4.622;2022-09-02T04:23:33;4.50;;;1.15;;
38499;SDS011;24269;51.894;4.622;2022-09-02T04:26:07;2.58;;;1.08;;
38499;SDS011;24269;51.894;4.622;2022-09-02T04:28:35;3.65;;;1.30;;
38499;SDS011;24269;51.894;4.622;2022-09-02T04:31:04;4.22;;;1.40;;
38499;SDS011;24269;51.894;4.622;2022-09-02T04:33:31;2.92;;;1.40;;
38499;SDS011;24269;51.894;4.622;2022-09-02T04:35:57;5.20;;;1.42;;
38499;SDS011;24269;51.894;4.622;2022-09-02T04:38:22;3.58;;;1.13;;
38499;SDS011;24269;51.894;4.622;2022-09-02T04:40:48;3.08;;;1.42;;
38499;SDS011;24269;51.894;4.622;2022-09-02T04:43:14;3.15;;;1.33;;
38499;SDS011;24269;51.894;4.622;2022-09-02T04:45:40;4.43;;;1.60;;
38499;SDS011;24269;51.894;4.622;2022-09-02T04:48:07;8.15;;;1.45;;
38499;SDS011;24269;51.894;4.622;2022-09-02T04:50:34;6.78;;;1.50;;
38499;SDS011;24269;51.894;4.622;2022-09-02T04:53:01;4.00;;;1.23;;
38499;SDS011;24269;51.894;4.622;2022-09-02T04:55:26;5.18;;;1.30;;
38499;SDS011;24269;51.894;4.622;2022-09-02T04:57:52;4.22;;;1.55;;
38499;SDS011;24269;51.894;4.622;2022-09-02T05:00:18;5.90;;;1.40;;
38499;SDS011;24269;51.894;4.622;2022-09-02T05:02:44;3.35;;;1.42;;
38499;SDS011;24269;51.894;4.622;2022-09-02T05:05:09;3.28;;;1.30;;
38499;SDS011;24269;51.894;4.622;2022-09-02T05:07:35;3.72;;;1.30;;
38499;SDS011;24269;51.894;4.622;2022-09-02T05:10:02;3.03;;;1.20;;
38499;SDS011;24269;51.894;4.622;2022-09-02T05:12:33;3.55;;;1.30;;
38499;SDS011;24269;51.894;4.622;2022-09-02T05:14:59;3.83;;;1.50;;
38499;SDS011;24269;51.894;4.622;2022-09-02T05:17:26;4.90;;;1.30;;
38499;SDS011;24269;51.894;4.622;2022-09-02T05:19:53;4.85;;;1.50;;
38499;SDS011;24269;51.894;4.622;2022-09-02T05:22:18;4.20;;;1.60;;
38499;SDS011;24269;51.894;4.622;2022-09-02T05:24:44;5.05;;;1.55;;
38499;SDS011;24269;51.894;4.622;2022-09-02T05:27:11;4.43;;;1.55;;
38499;SDS011;24269;51.894;4.622;2022-09-02T05:29:40;3.13;;;1.60;;
38499;SDS011;24269;51.894;4.622;2022-09-02T05:32:05;4.03;;;1.45;;
38499;SDS011;24269;51.894;4.622;2022-09-02T05:34:32;4.47;;;1.60;;
38499;SDS011;24269;51.894;4.622;2022-09-02T05:36:59;5.10;;;1.73;;
38499;SDS011;24269;51.894;4.622;2022-09-02T05:39:25;9.13;;;2.85;;
38499;SDS011;24269;51.894;4.622;2022-09-02T05:41:51;6.25;;;1.88;;
38499;SDS011;24269;51.894;4.622;2022-09-02T05:44:17;2.67;;;1.60;;
38499;SDS011;24269;51.894;4.622;2022-09-02T05:46:42;2.67;;;1.52;;
38499;SDS011;24269;51.894;4.622;2022-09-02T05:49:08;4.18;;;1.55;;
38499;SDS011;24269;51.894;4.622;2022-09-02T05:51:43;6.90;;;1.90;;
38499;SDS011;24269;51.894;4.622;2022-09-02T05:54:17;6.25;;;1.98;;
38499;SDS011;24269;51.894;4.622;2022-09-02T05:56:46;2.85;;;1.60;;
38499;SDS011;24269;51.894;4.622;2022-09-02T05:59:15;5.78;;;1.80;;
38499;SDS011;24269;51.894;4.622;2022-09-02T06:01:41;4.20;;;1.70;;
38499;SDS011;24269;51.894;4.622;2022-09-02T06:04:07;5.55;;;1.50;;
38499;SDS011;24269;51.894;4.622;2022-09-02T06:06:33;4.80;;;1.60;;
38499;SDS011;24269;51.894;4.622;2022-09-02T06:09:02;5.78;;;1.50;;
38499;SDS011;24269;51.894;4.622;2022-09-02T06:11:31;3.80;;;1.60;;
38499;SDS011;24269;51.894;4.622;2022-09-02T06:13:57;3.03;;;1.60;;
38499;SDS011;24269;51.894;4.622;2022-09-02T06:16:23;4.45;;;1.65;;
38499;SDS011;24269;51.894;4.622;2022-09-02T06:18:50;4.82;;;1.70;;
38499;SDS011;24269;51.894;4.622;2022-09-02T06:21:16;3.70;;;1.65;;
38499;SDS011;24269;51.894;4.622;2022-09-02T06:23:45;6.95;;;1.60;;
38499;SDS011;24269;51.894;4.622;2022-09-02T06:26:11;4.05;;;1.60;;
38499;SDS011;24269;51.894;4.622;2022-09-02T06:28:37;6.35;;;2.00;;
38499;SDS011;24269;51.894;4.622;2022-09-02T06:31:05;4.20;;;1.50;;
38499;SDS011;24269;51.894;4.622;2022-09-02T06:33:37;6.00;;;1.70;;
38499;SDS011;24269;51.894;4.622;2022-09-02T06:36:06;4.82;;;1.95;;
38499;SDS011;24269;51.894;4.622;2022-09-02T06:38:37;6.68;;;2.00;;
38499;SDS011;24269;51.894;4.622;2022-09-02T06:41:04;5.65;;;1.55;;
38499;SDS011;24269;51.894;4.622;2022-09-02T06:43:31;4.38;;;1.67;;
38499;SDS011;24269;51.894;4.622;2022-09-02T06:45:56;4.97;;;2.00;;
38499;SDS011;24269;51.894;4.622;2022-09-02T06:48:22;4.00;;;2.03;;
38499;SDS011;24269;51.894;4.622;2022-09-02T06:50:48;2.85;;;1.70;;
38499;SDS011;24269;51.894;4.622;2022-09-02T06:53:13;5.40;;;2.20;;
38499;SDS011;24269;51.894;4.622;2022-09-02T06:55:42;8.32;;;2.28;;
38499;SDS011;24269;51.894;4.622;2022-09-02T06:58:09;6.18;;;2.08;;
38499;SDS011;24269;51.894;4.622;2022-09-02T07:00:35;6.03;;;2.00;;
38499;SDS011;24269;51.894;4.622;2022-09-02T07:03:02;5.07;;;1.90;;
38499;SDS011;24269;51.894;4.622;2022-09-02T07:05:47;4.63;;;2.38;;
38499;SDS011;24269;51.894;4.622;2022-09-02T07:08:26;4.43;;;1.75;;
38499;SDS011;24269;51.894;4.622;2022-09-02T07:10:52;5.10;;;2.00;;
38499;SDS011;24269;51.894;4.622;2022-09-02T07:13:18;7.18;;;2.10;;
38499;SDS011;24269;51.894;4.622;2022-09-02T07:15:44;5.93;;;1.85;;
38499;SDS011;24269;51.894;4.622;2022-09-02T07:18:09;5.53;;;2.30;;
38499;SDS011;24269;51.894;4.622;2022-09-02T07:20:35;4.78;;;2.28;;
38499;SDS011;24269;51.894;4.622;2022-09-02T07:23:00;5.85;;;2.10;;
38499;SDS011;24269;51.894;4.622;2022-09-02T07:25:26;6.40;;;2.28;;
38499;SDS011;24269;51.894;4.622;2022-09-02T07:27:52;5.53;;;2.50;;
38499;SDS011;24269;51.894;4.622;2022-09-02T07:30:18;7.57;;;2.65;;
38499;SDS011;24269;51.894;4.622;2022-09-02T07:32:44;7.03;;;2.80;;
38499;SDS011;24269;51.894;4.622;2022-09-02T07:35:10;6.55;;;2.53;;
38499;SDS011;24269;51.894;4.622;2022-09-02T07:37:36;7.03;;;2.88;;
38499;SDS011;24269;51.894;4.622;2022-09-02T07:40:03;5.57;;;2.78;;
38499;SDS011;24269;51.894;4.622;2022-09-02T07:42:31;6.85;;;2.75;;
38499;SDS011;24269;51.894;4.622;2022-09-02T07:44:57;5.68;;;2.70;;
38499;SDS011;24269;51.894;4.622;2022-09-02T07:47:23;6.72;;;3.00;;
38499;SDS011;24269;51.894;4.622;2022-09-02T07:49:48;5.97;;;2.67;;
38499;SDS011;24269;51.894;4.622;2022-09-02T07:52:14;8.95;;;2.90;;
38499;SDS011;24269;51.894;4.622;2022-09-02T07:54:40;9.45;;;3.30;;
38499;SDS011;24269;51.894;4.622;2022-09-02T07:57:06;8.93;;;3.10;;
38499;SDS011;24269;51.894;4.622;2022-09-02T07:59:32;6.45;;;3.20;;
38499;SDS011;24269;51.894;4.622;2022-09-02T08:01:58;8.82;;;3.15;;
38499;SDS011;24269;51.894;4.622;2022-09-02T08:04:24;10.07;;;3.70;;
38499;SDS011;24269;51.894;4.622;2022-09-02T08:06:51;7.78;;;3.10;;
38499;SDS011;24269;51.894;4.622;2022-09-02T08:09:17;6.25;;;3.00;;
38499;SDS011;24269;51.894;4.622;2022-09-02T08:11:44;10.60;;;3.35;;
38499;SDS011;24269;51.894;4.622;2022-09-02T08:14:13;5.35;;;2.65;;
38499;SDS011;24269;51.894;4.622;2022-09-02T08:16:42;7.13;;;2.85;;
38499;SDS011;24269;51.894;4.622;2022-09-02T08:19:09;7.13;;;2.90;;
38499;SDS011;24269;51.894;4.622;2022-09-02T08:21:35;9.10;;;3.30;;
38499;SDS011;24269;51.894;4.622;2022-09-02T08:24:01;5.85;;;2.95;;
38499;SDS011;24269;51.894;4.622;2022-09-02T08:26:26;8.52;;;3.05;;
38499;SDS011;24269;51.894;4.622;2022-09-02T08:28:53;7.88;;;3.20;;
38499;SDS011;24269;51.894;4.622;2022-09-02T08:31:19;8.63;;;3.15;;
38499;SDS011;24269;51.894;4.622;2022-09-02T08:33:45;9.57;;;3.28;;
38499;SDS011;24269;51.894;4.622;2022-09-02T08:36:11;8.25;;;2.90;;
38499;SDS011;24269;51.894;4.622;2022-09-02T08:38:39;9.10;;;3.00;;
38499;SDS011;24269;51.894;4.622;2022-09-02T08:41:12;8.30;;;2.95;;
38499;SDS011;24269;51.894;4.622;2022-09-02T08:43:44;7.38;;;3.08;;
38499;SDS011;24269;51.894;4.622;2022-09-02T08:46:11;8.55;;;3.03;;
38499;SDS011;24269;51.894;4.622;2022-09-02T08:51:44;9.90;;;3.00;;
38499;SDS011;24269;51.894;4.622;2022-09-02T08:54:19;6.90;;;2.92;;
38499;SDS011;24269;51.894;4.622;2022-09-02T08:56:57;6.82;;;2.78;;
38499;SDS011;24269;51.894;4.622;2022-09-02T08:59:24;5.50;;;2.88;;
38499;SDS011;24269;51.894;4.622;2022-09-02T09:01:55;9.15;;;3.13;;
38499;SDS011;24269;51.894;4.622;2022-09-02T09:04:30;6.80;;;3.35;;
38499;SDS011;24269;51.894;4.622;2022-09-02T09:12:48;7.30;;;3.13;;
38499;SDS011;24269;51.894;4.622;2022-09-02T09:18:03;10.00;;;3.85;;
38499;SDS011;24269;51.894;4.622;2022-09-02T09:20:39;8.70;;;3.38;;
38499;SDS011;24269;51.894;4.622;2022-09-02T09:25:55;9.52;;;3.42;;
38499;SDS011;24269;51.894;4.622;2022-09-02T09:28:29;9.07;;;3.42;;
38499;SDS011;24269;51.894;4.622;2022-09-02T09:30:55;9.48;;;3.60;;
38499;SDS011;24269;51.894;4.622;2022-09-02T09:33:24;8.15;;;3.90;;
38499;SDS011;24269;51.894;4.622;2022-09-02T09:35:51;6.88;;;3.50;;
38499;SDS011;24269;51.894;4.622;2022-09-02T09:38:28;9.20;;;3.53;;
38499;SDS011;24269;51.894;4.622;2022-09-02T09:41:13;5.40;;;3.38;;
38499;SDS011;24269;51.894;4.622;2022-09-02T09:43:42;8.10;;;3.75;;
38499;SDS011;24269;51.894;4.622;2022-09-02T09:46:23;8.05;;;3.40;;
38499;SDS011;24269;51.894;4.622;2022-09-02T09:48:54;9.65;;;3.35;;
38499;SDS011;24269;51.894;4.622;2022-09-02T09:51:20;7.97;;;3.58;;
38499;SDS011;24269;51.894;4.622;2022-09-02T09:53:46;7.15;;;3.50;;
38499;SDS011;24269;51.894;4.622;2022-09-02T10:03:32;15.15;;;4.40;;
38499;SDS011;24269;51.894;4.622;2022-09-02T10:06:22;10.60;;;3.90;;
38499;SDS011;24269;51.894;4.622;2022-09-02T10:08:51;10.57;;;4.43;;
38499;SDS011;24269;51.894;4.622;2022-09-02T10:13:57;8.95;;;3.25;;
38499;SDS011;24269;51.894;4.622;2022-09-02T10:16:30;11.05;;;3.45;;
38499;SDS011;24269;51.894;4.622;2022-09-02T10:19:17;8.30;;;3.85;;
38499;SDS011;24269;51.894;4.622;2022-09-02T10:27:22;6.95;;;3.33;;
38499;SDS011;24269;51.894;4.622;2022-09-02T10:30:21;8.55;;;3.60;;
38499;SDS011;24269;51.894;4.622;2022-09-02T10:40:58;7.95;;;3.10;;
38499;SDS011;24269;51.894;4.622;2022-09-02T10:43:56;9.05;;;3.15;;
38499;SDS011;24269;51.894;4.622;2022-09-02T10:55:09;6.82;;;3.38;;
38499;SDS011;24269;51.894;4.622;2022-09-02T10:57:51;9.38;;;3.60;;
38499;SDS011;24269;51.894;4.622;2022-09-02T11:00:25;9.57;;;4.38;;
38499;SDS011;24269;51.894;4.622;2022-09-02T11:02:54;11.30;;;4.00;;
38499;SDS011;24269;51.894;4.622;2022-09-02T11:08:13;9.32;;;3.97;;
38499;SDS011;24269;51.894;4.622;2022-09-02T11:19:10;8.82;;;3.45;;
38499;SDS011;24269;51.894;4.622;2022-09-02T11:21:54;6.60;;;3.65;;
38499;SDS011;24269;51.894;4.622;2022-09-02T11:24:43;9.90;;;3.75;;
38499;SDS011;24269;51.894;4.622;2022-09-02T11:30:02;8.70;;;3.25;;
38499;SDS011;24269;51.894;4.622;2022-09-02T11:35:43;8.73;;;3.40;;
38499;SDS011;24269;51.894;4.622;2022-09-02T11:43:09;8.38;;;3.40;;
38499;SDS011;24269;51.894;4.622;2022-09-02T11:54:30;6.97;;;2.75;;
38499;SDS011;24269;51.894;4.622;2022-09-02T11:57:01;5.90;;;2.85;;
38499;SDS011;24269;51.894;4.622;2022-09-02T12:08:09;8.82;;;2.42;;
38499;SDS011;24269;51.894;4.622;2022-09-02T12:11:01;6.40;;;2.67;;
38499;SDS011;24269;51.894;4.622;2022-09-02T12:13:43;6.40;;;2.60;;
38499;SDS011;24269;51.894;4.622;2022-09-02T12:21:23;4.97;;;2.40;;
38499;SDS011;24269;51.894;4.622;2022-09-02T12:26:27;4.57;;;2.08;;
38499;SDS011;24269;51.894;4.622;2022-09-02T12:31:54;5.20;;;1.92;;
38499;SDS011;24269;51.894;4.622;2022-09-02T12:36:56;6.57;;;2.20;;
38499;SDS011;24269;51.894;4.622;2022-09-02T12:42:00;4.38;;;1.90;;
38499;SDS011;24269;51.894;4.622;2022-09-02T12:57:41;7.05;;;3.00;;
38499;SDS011;24269;51.894;4.622;2022-09-02T13:00:13;6.90;;;2.97;;
38499;SDS011;24269;51.894;4.622;2022-09-02T13:18:46;7.03;;;3.37;;
38499;SDS011;24269;51.894;4.622;2022-09-02T13:24:13;8.03;;;3.20;;
38499;SDS011;24269;51.894;4.622;2022-09-02T13:27:11;6.80;;;3.60;;
38499;SDS011;24269;51.894;4.622;2022-09-02T13:29:58;10.43;;;3.50;;
38499;SDS011;24269;51.894;4.622;2022-09-02T13:32:26;10.27;;;3.90;;
38499;SDS011;24269;51.894;4.622;2022-09-02T13:34:55;8.43;;;3.50;;
38499;SDS011;24269;51.894;4.622;2022-09-02T13:37:52;8.88;;;3.38;;
38499;SDS011;24269;51.894;4.622;2022-09-02T13:42:52;5.90;;;2.97;;
38499;SDS011;24269;51.894;4.622;2022-09-02T13:45:23;7.10;;;2.72;;
38499;SDS011;24269;51.894;4.622;2022-09-02T13:47:51;7.20;;;3.17;;
38499;SDS011;24269;51.894;4.622;2022-09-02T13:50:20;7.68;;;2.75;;
38499;SDS011;24269;51.894;4.622;2022-09-02T13:52:54;7.35;;;2.78;;
38499;SDS011;24269;51.894;4.622;2022-09-02T13:55:28;7.25;;;2.40;;
38499;SDS011;24269;51.894;4.622;2022-09-02T13:58:02;6.32;;;2.25;;
38499;SDS011;24269;51.894;4.622;2022-09-02T14:00:34;4.93;;;1.83;;
38499;SDS011;24269;51.894;4.622;2022-09-02T14:05:32;6.80;;;1.85;;
38499;SDS011;24269;51.894;4.622;2022-09-02T14:08:00;3.42;;;1.50;;
38499;SDS011;24269;51.894;4.622;2022-09-02T14:10:29;6.55;;;1.92;;
38499;SDS011;24269;51.894;4.622;2022-09-02T14:12:58;4.35;;;1.85;;
38499;SDS011;24269;51.894;4.622;2022-09-02T14:15:26;3.85;;;1.88;;
38499;SDS011;24269;51.894;4.622;2022-09-02T14:20:32;4.93;;;1.77;;
38499;SDS011;24269;51.894;4.622;2022-09-02T14:22:58;5.72;;;1.80;;
38499;SDS011;24269;51.894;4.622;2022-09-02T14:25:24;5.80;;;1.60;;
38499;SDS011;24269;51.894;4.622;2022-09-02T14:27:54;2.92;;;1.60;;
38499;SDS011;24269;51.894;4.622;2022-09-02T14:38:48;3.85;;;1.50;;
38499;SDS011;24269;51.894;4.622;2022-09-02T14:46:28;4.22;;;1.30;;
38499;SDS011;24269;51.894;4.622;2022-09-02T14:49:19;4.15;;;1.50;;
38499;SDS011;24269;51.894;4.622;2022-09-02T14:51:57;7.47;;;1.60;;
38499;SDS011;24269;51.894;4.622;2022-09-02T15:00:11;4.40;;;1.80;;
38499;SDS011;24269;51.894;4.622;2022-09-02T15:02:43;4.72;;;1.90;;
38499;SDS011;24269;51.894;4.622;2022-09-02T15:05:11;5.75;;;1.90;;
38499;SDS011;24269;51.894;4.622;2022-09-02T15:07:40;5.97;;;1.52;;
38499;SDS011;24269;51.894;4.622;2022-09-02T15:10:06;5.00;;;1.65;;
38499;SDS011;24269;51.894;4.622;2022-09-02T15:12:35;7.22;;;1.50;;
38499;SDS011;24269;51.894;4.622;2022-09-02T15:15:04;4.97;;;1.40;;
38499;SDS011;24269;51.894;4.622;2022-09-02T15:17:30;5.70;;;1.45;;
38499;SDS011;24269;51.894;4.622;2022-09-02T15:19:56;3.67;;;1.55;;
38499;SDS011;24269;51.894;4.622;2022-09-02T15:22:21;5.38;;;1.65;;
38499;SDS011;24269;51.894;4.622;2022-09-02T15:24:47;5.78;;;1.60;;
38499;SDS011;24269;51.894;4.622;2022-09-02T15:27:14;4.60;;;1.50;;
38499;SDS011;24269;51.894;4.622;2022-09-02T15:29:41;4.38;;;1.75;;
38499;SDS011;24269;51.894;4.622;2022-09-02T15:32:07;3.88;;;1.33;;
38499;SDS011;24269;51.894;4.622;2022-09-02T15:34:32;4.72;;;1.60;;
38499;SDS011;24269;51.894;4.622;2022-09-02T15:36:58;3.35;;;1.30;;
38499;SDS011;24269;51.894;4.622;2022-09-02T15:39:25;5.20;;;1.67;;
38499;SDS011;24269;51.894;4.622;2022-09-02T15:41:51;3.60;;;1.30;;
38499;SDS011;24269;51.894;4.622;2022-09-02T15:44:19;4.32;;;1.77;;
38499;SDS011;24269;51.894;4.622;2022-09-02T15:46:45;4.20;;;1.70;;
38499;SDS011;24269;51.894;4.622;2022-09-02T15:49:12;4.25;;;1.50;;
38499;SDS011;24269;51.894;4.622;2022-09-02T15:51:39;5.35;;;1.80;;
38499;SDS011;24269;51.894;4.622;2022-09-02T15:54:08;3.70;;;1.80;;
38499;SDS011;24269;51.894;4.622;2022-09-02T15:56:36;7.90;;;1.70;;
38499;SDS011;24269;51.894;4.622;2022-09-02T15:59:05;4.72;;;1.48;;
38499;SDS011;24269;51.894;4.622;2022-09-02T16:01:33;6.07;;;1.50;;
38499;SDS011;24269;51.894;4.622;2022-09-02T16:04:00;2.83;;;1.35;;
38499;SDS011;24269;51.894;4.622;2022-09-02T16:06:26;4.45;;;1.67;;
38499;SDS011;24269;51.894;4.622;2022-09-02T16:08:52;4.57;;;1.63;;
38499;SDS011;24269;51.894;4.622;2022-09-02T16:11:19;4.00;;;1.50;;
38499;SDS011;24269;51.894;4.622;2022-09-02T16:13:45;3.40;;;1.35;;
38499;SDS011;24269;51.894;4.622;2022-09-02T16:16:11;6.50;;;1.33;;
38499;SDS011;24269;51.894;4.622;2022-09-02T16:18:38;6.45;;;1.40;;
38499;SDS011;24269;51.894;4.622;2022-09-02T16:21:05;4.50;;;1.20;;
38499;SDS011;24269;51.894;4.622;2022-09-02T16:23:33;6.88;;;1.50;;
38499;SDS011;24269;51.894;4.622;2022-09-02T16:26:10;3.50;;;1.30;;
38499;SDS011;24269;51.894;4.622;2022-09-02T16:28:40;3.92;;;1.60;;
38499;SDS011;24269;51.894;4.622;2022-09-02T16:31:09;7.05;;;1.90;;
38499;SDS011;24269;51.894;4.622;2022-09-02T16:33:36;5.45;;;1.30;;
38499;SDS011;24269;51.894;4.622;2022-09-02T16:36:03;3.95;;;1.48;;
38499;SDS011;24269;51.894;4.622;2022-09-02T16:38:29;5.28;;;1.20;;
38499;SDS011;24269;51.894;4.622;2022-09-02T16:40:55;6.32;;;1.30;;
38499;SDS011;24269;51.894;4.622;2022-09-02T16:43:22;3.22;;;1.27;;
38499;SDS011;24269;51.894;4.622;2022-09-02T16:45:49;4.40;;;1.20;;
38499;SDS011;24269;51.894;4.622;2022-09-02T16:48:16;3.70;;;1.20;;
38499;SDS011;24269;51.894;4.622;2022-09-02T16:50:43;6.75;;;1.40;;
38499;SDS011;24269;51.894;4.622;2022-09-02T16:53:09;3.67;;;1.20;;
38499;SDS011;24269;51.894;4.622;2022-09-02T16:55:42;6.68;;;1.38;;
38499;SDS011;24269;51.894;4.622;2022-09-02T16:58:09;3.88;;;1.23;;
38499;SDS011;24269;51.894;4.622;2022-09-02T17:00:44;7.07;;;1.30;;
38499;SDS011;24269;51.894;4.622;2022-09-02T17:03:10;4.95;;;1.30;;
38499;SDS011;24269;51.894;4.622;2022-09-02T17:05:36;3.45;;;1.30;;
38499;SDS011;24269;51.894;4.622;2022-09-02T17:08:02;5.97;;;1.42;;
38499;SDS011;24269;51.894;4.622;2022-09-02T17:10:29;5.38;;;1.30;;
38499;SDS011;24269;51.894;4.622;2022-09-02T17:12:55;6.32;;;1.35;;
38499;SDS011;24269;51.894;4.622;2022-09-02T17:15:21;4.18;;;1.27;;
38499;SDS011;24269;51.894;4.622;2022-09-02T17:17:48;5.03;;;1.60;;
38499;SDS011;24269;51.894;4.622;2022-09-02T17:20:14;4.20;;;1.40;;
38499;SDS011;24269;51.894;4.622;2022-09-02T17:22:39;3.97;;;1.30;;
38499;SDS011;24269;51.894;4.622;2022-09-02T17:25:06;2.50;;;1.30;;
38499;SDS011;24269;51.894;4.622;2022-09-02T17:27:32;4.72;;;1.58;;
38499;SDS011;24269;51.894;4.622;2022-09-02T17:30:00;6.47;;;1.45;;
38499;SDS011;24269;51.894;4.622;2022-09-02T17:32:25;5.05;;;1.30;;
38499;SDS011;24269;51.894;4.622;2022-09-02T17:34:51;4.72;;;1.27;;
38499;SDS011;24269;51.894;4.622;2022-09-02T17:37:18;4.97;;;1.50;;
38499;SDS011;24269;51.894;4.622;2022-09-02T17:39:46;5.28;;;1.50;;